Time;durP1;ratioP1;P1;durP2;ratioP2;P2;SDS_P1;SDS_P2;PMS_P1;PMS_P2;Temp;Humidity;BMP_temperature;BMP_pressure;BME280_temperature;BME280_humidity;BME280_pressure;Samples;Min_cycle;Max_cycle;Signal;HPM_P1;HPM_P2
2022/01/13 00:00:57;;;;;;;;;;;;;;;20.43;42.79;103979.38;7282789;19;153945;-50
2022/01/13 00:03:24;;;;;;;;;;;;;;;20.40;42.72;103974.19;7275739;19;152140;-50
2022/01/13 00:05:55;;;;;;;;;;;;;;;20.38;42.59;103971.63;7286447;19;153259;-54
2022/01/13 00:08:22;;;;;;;;;;;;;;;20.37;42.60;103980.28;7280161;19;152099;-51
2022/01/13 00:10:49;;;;;;;;;;;;;;;20.34;42.58;103978.81;7282696;19;152833;-51
2022/01/13 00:13:23;;;;;;;;;;;;;;;20.33;43.08;103976.22;7279281;19;153305;-50
2022/01/13 00:16:12;;;;;;;;;;;;;;;20.30;42.82;103966.34;7284114;19;151986;-51
2022/01/13 00:18:47;;;;;;;;;;;;;;;20.27;43.08;103974.31;7280952;19;153295;-51
2022/01/13 00:21:32;;;;;;;;;;;;;;;20.27;42.86;103979.94;7283007;19;153618;-50
2022/01/13 00:24:01;;;;;;;;;;;;;;;20.22;43.30;103976.97;7280655;19;152006;-51
2022/01/13 00:26:30;;;;;;;;;;;;;;;20.22;43.40;103979.75;7286448;19;153819;-50
2022/01/13 00:28:59;;;;;;;;;;;;;;;20.21;43.29;103970.50;7292199;19;153682;-50
2022/01/13 00:31:30;;;;;;;;;;;;;;;20.18;43.04;103972.91;7283086;19;153214;-50
2022/01/13 00:33:58;;;;;;;;;;;;;;;20.18;43.11;103968.16;7284021;19;153647;-50
2022/01/13 00:36:25;;;;;;;;;;;;;;;20.16;43.61;103967.53;7284853;19;151646;-50
2022/01/13 00:38:52;;;;;;;;;;;;;;;20.15;43.57;103960.19;7283736;19;154024;-50
2022/01/13 00:41:20;;;;;;;;;;;;;;;20.12;43.42;103957.88;7279844;19;153825;-50
2022/01/13 00:43:47;;;;;;;;;;;;;;;20.11;43.34;103961.75;7280916;19;152010;-50
2022/01/13 00:46:21;;;;;;;;;;;;;;;20.09;43.48;103961.13;7285426;19;153217;-50
2022/01/13 00:48:48;;;;;;;;;;;;;;;20.06;43.66;103958.78;7284397;19;153183;-50
2022/01/13 00:51:15;;;;;;;;;;;;;;;20.07;43.84;103965.25;7289613;19;152021;-50
2022/01/13 00:53:42;;;;;;;;;;;;;;;20.05;43.77;103957.06;7281640;19;153821;-50
2022/01/13 00:56:09;;;;;;;;;;;;;;;20.01;43.48;103957.75;7285242;19;152147;-50
2022/01/13 00:58:36;;;;;;;;;;;;;;;19.98;43.67;103954.34;7283531;19;152887;-50
2022/01/13 01:01:04;;;;;;;;;;;;;;;19.93;44.05;103951.38;7282430;19;154399;-50
2022/01/13 01:03:32;;;;;;;;;;;;;;;19.91;43.68;103961.94;7284802;19;152100;-51
2022/01/13 01:05:59;;;;;;;;;;;;;;;19.90;44.17;103957.41;7278935;19;153610;-50
2022/01/13 01:08:25;;;;;;;;;;;;;;;19.88;43.96;103961.56;7281261;19;153857;-50
2022/01/13 01:10:54;;;;;;;;;;;;;;;19.85;43.94;103960.06;7282608;19;152079;-50
2022/01/13 01:13:26;;;;;;;;;;;;;;;19.81;44.01;103958.81;7287855;19;152011;-50
2022/01/13 01:15:55;;;;;;;;;;;;;;;19.81;43.97;103955.13;7283879;19;152027;-50
2022/01/13 01:21:15;;;;;;;;;;;;;;;19.76;43.96;103958.63;7281588;19;154497;-50
2022/01/13 01:23:45;;;;;;;;;;;;;;;19.74;44.32;103954.34;7280357;19;151825;-50
2022/01/13 01:28:56;;;;;;;;;;;;;;;19.69;44.40;103955.03;7280593;19;153777;-50
2022/01/13 01:31:28;;;;;;;;;;;;;;;19.67;44.29;103957.22;7284650;19;151920;-51
2022/01/13 01:34:22;;;;;;;;;;;;;;;19.61;44.55;103958.16;7281340;19;153651;-50
2022/01/13 01:36:42;;;;;;;;;;;;;;;19.60;44.37;103958.38;7293385;19;153934;-50
2022/01/13 01:39:10;;;;;;;;;;;;;;;19.59;44.20;103962.25;7286685;19;153856;-50
2022/01/13 01:41:38;;;;;;;;;;;;;;;19.56;44.31;103957.09;7285146;19;153451;-50
2022/01/13 01:44:05;;;;;;;;;;;;;;;19.53;44.63;103959.25;7285250;19;152260;-50
2022/01/13 01:46:34;;;;;;;;;;;;;;;19.52;44.55;103953.91;7288433;19;153263;-51
2022/01/13 01:49:04;;;;;;;;;;;;;;;19.51;44.59;103953.03;7284788;19;154278;-50
2022/01/13 01:51:31;;;;;;;;;;;;;;;19.48;44.77;103959.13;7285042;19;151936;-50
2022/01/13 01:53:58;;;;;;;;;;;;;;;19.43;44.91;103956.13;7286832;19;152760;-50
2022/01/13 01:56:25;;;;;;;;;;;;;;;19.44;44.98;103952.22;7286799;19;154144;-50
2022/01/13 01:58:51;;;;;;;;;;;;;;;19.42;44.83;103954.38;7292663;19;151616;-51
2022/01/13 02:01:18;;;;;;;;;;;;;;;19.41;44.88;103954.59;7288553;19;153434;-51
2022/01/13 02:03:45;;;;;;;;;;;;;;;19.36;44.91;103958.09;7289876;19;151939;-50
2022/01/13 02:06:12;;;;;;;;;;;;;;;19.35;44.81;103955.53;7285803;19;153058;-51
2022/01/13 02:08:39;;;;;;;;;;;;;;;19.33;45.14;103954.88;7285198;19;153927;-49
2022/01/13 02:11:26;;;;;;;;;;;;;;;19.30;45.21;103950.59;7287394;19;152378;-50
2022/01/13 02:13:58;;;;;;;;;;;;;;;19.29;45.17;103956.44;7287139;19;153227;-50
2022/01/13 02:16:43;;;;;;;;;;;;;;;19.25;45.28;103958.81;7288389;19;154234;-50
2022/01/13 02:19:10;;;;;;;;;;;;;;;19.27;45.27;103948.22;7293395;19;152098;-50
2022/01/13 02:21:37;;;;;;;;;;;;;;;19.25;45.12;103952.38;7286145;19;154329;-50
2022/01/13 02:24:04;;;;;;;;;;;;;;;19.19;45.49;103948.50;7285550;19;152150;-50
2022/01/13 02:26:30;;;;;;;;;;;;;;;19.17;45.34;103945.06;7284380;19;152084;-50
2022/01/13 02:28:59;;;;;;;;;;;;;;;19.16;45.35;103948.97;7285339;19;153492;-50
2022/01/13 02:31:26;;;;;;;;;;;;;;;19.17;45.35;103944.22;7285369;19;152298;-50
2022/01/13 02:33:54;;;;;;;;;;;;;;;19.15;45.52;103949.19;7285017;19;153762;-50
2022/01/13 02:36:22;;;;;;;;;;;;;;;19.14;45.26;103951.13;7285806;19;153848;-50
2022/01/13 02:38:50;;;;;;;;;;;;;;;19.13;45.38;103949.41;7286136;19;152211;-50
2022/01/13 02:41:17;;;;;;;;;;;;;;;19.08;45.65;103949.22;7291275;19;153500;-50
2022/01/13 02:43:44;;;;;;;;;;;;;;;19.09;45.67;103942.53;7286008;19;152621;-50
2022/01/13 02:46:28;;;;;;;;;;;;;;;19.06;45.59;103954.22;7280797;19;152276;-50
2022/01/13 02:48:56;;;;;;;;;;;;;;;19.07;45.22;103942.78;7284344;19;152760;-50
2022/01/13 02:51:22;;;;;;;;;;;;;;;19.03;45.73;103941.50;7283874;19;152353;-51
2022/01/13 02:53:49;;;;;;;;;;;;;;;19.01;45.75;103946.47;7286574;19;153155;-50
2022/01/13 02:56:16;;;;;;;;;;;;;;;19.00;45.62;103943.88;7285108;19;154317;-51
2022/01/13 02:58:43;;;;;;;;;;;;;;;18.99;45.75;103944.97;7285873;19;151757;-50
2022/01/13 03:01:09;;;;;;;;;;;;;;;18.96;45.95;103948.22;7286044;19;152601;-51
2022/01/13 03:03:36;;;;;;;;;;;;;;;18.95;45.71;103957.72;7290197;19;153893;-50
2022/01/13 03:06:05;;;;;;;;;;;;;;;18.93;45.94;103951.50;7283529;19;152630;-50
2022/01/13 03:08:32;;;;;;;;;;;;;;;18.90;45.65;103947.19;7285150;19;152939;-50
2022/01/13 03:10:59;;;;;;;;;;;;;;;18.88;45.78;103945.69;7286406;19;152171;-50
2022/01/13 03:13:28;;;;;;;;;;;;;;;18.85;45.77;103951.75;7289574;19;153268;-51
2022/01/13 03:15:55;;;;;;;;;;;;;;;18.84;45.80;103945.28;7284438;19;153504;-50
2022/01/13 03:18:22;;;;;;;;;;;;;;;18.83;46.05;103951.97;7283443;19;151717;-51
2022/01/13 03:20:48;;;;;;;;;;;;;;;18.85;46.01;103944.19;7283662;19;153050;-50
2022/01/13 03:23:17;;;;;;;;;;;;;;;18.82;46.22;103943.78;7282266;19;153339;-50
2022/01/13 03:25:45;;;;;;;;;;;;;;;18.80;45.90;103938.41;7292191;19;152399;-52
2022/01/13 03:28:15;;;;;;;;;;;;;;;18.79;46.30;103933.91;7283942;19;154590;-50
2022/01/13 03:30:42;;;;;;;;;;;;;;;18.75;46.18;103929.81;7284745;19;151835;-51
2022/01/13 03:33:10;;;;;;;;;;;;;;;18.71;46.41;103922.97;7283635;19;152712;-51
2022/01/13 03:35:38;;;;;;;;;;;;;;;18.71;46.09;103927.69;7281302;19;153911;-50
2022/01/13 03:38:05;;;;;;;;;;;;;;;18.72;46.22;103923.78;7287572;19;151933;-50
2022/01/13 03:40:33;;;;;;;;;;;;;;;18.67;46.10;103916.06;7284863;19;152785;-50
2022/01/13 03:43:01;;;;;;;;;;;;;;;18.64;46.55;103913.72;7283725;19;152697;-49
2022/01/13 03:45:32;;;;;;;;;;;;;;;18.66;46.06;103914.38;7284877;19;152086;-51
2022/01/13 03:47:59;;;;;;;;;;;;;;;18.65;46.37;103909.84;7292194;19;152833;-50
2022/01/13 03:50:26;;;;;;;;;;;;;;;18.60;46.40;103904.91;7285852;19;151681;-50
2022/01/13 03:52:54;;;;;;;;;;;;;;;18.60;46.06;103904.03;7285507;19;152803;-50
2022/01/13 03:55:40;;;;;;;;;;;;;;;18.58;46.13;103909.84;7283026;19;154524;-50
2022/01/13 03:58:11;;;;;;;;;;;;;;;18.58;46.33;103909.00;7282054;19;151907;-51
2022/01/13 04:00:47;;;;;;;;;;;;;;;18.52;46.73;103907.06;7284837;19;153729;-50
2022/01/13 04:03:14;;;;;;;;;;;;;;;18.51;46.68;103909.00;7283403;19;153564;-50
2022/01/13 04:05:51;;;;;;;;;;;;;;;18.50;46.78;103904.50;7282483;19;151853;-50
2022/01/13 04:08:17;;;;;;;;;;;;;;;18.48;46.37;103905.81;7284148;19;153515;-51
2022/01/13 04:10:44;;;;;;;;;;;;;;;18.48;46.57;103900.22;7290191;19;151815;-50
2022/01/13 04:13:22;;;;;;;;;;;;;;;18.47;46.55;103898.47;7284660;19;152585;-51
2022/01/13 04:15:50;;;;;;;;;;;;;;;18.47;46.45;103906.88;7281063;19;152297;-50
2022/01/13 04:18:17;;;;;;;;;;;;;;;18.44;46.69;103904.53;7281469;19;151688;-50
2022/01/13 04:20:43;;;;;;;;;;;;;;;18.43;46.87;103900.88;7284246;19;152821;-51
2022/01/13 04:23:12;;;;;;;;;;;;;;;18.40;46.55;103901.28;7283526;19;154152;-50
2022/01/13 04:25:41;;;;;;;;;;;;;;;18.39;46.96;103895.94;7280855;19;151739;-50
2022/01/13 04:28:08;;;;;;;;;;;;;;;18.36;46.57;103893.56;7284047;19;152808;-50
2022/01/13 04:30:47;;;;;;;;;;;;;;;18.37;46.91;103906.50;7290119;19;153427;-50
2022/01/13 04:33:14;;;;;;;;;;;;;;;18.34;46.92;103902.22;7285668;19;153346;-50
2022/01/13 04:35:41;;;;;;;;;;;;;;;18.30;46.92;103902.88;7283576;19;153487;-50
2022/01/13 04:38:08;;;;;;;;;;;;;;;18.30;47.13;103892.53;7280829;19;152144;-50
2022/01/13 04:40:36;;;;;;;;;;;;;;;18.29;46.93;103896.41;7282199;19;153082;-50
2022/01/13 04:43:03;;;;;;;;;;;;;;;18.32;47.09;103897.91;7280475;19;153355;-50
2022/01/13 04:45:29;;;;;;;;;;;;;;;18.35;47.04;103895.50;7281761;19;152931;-50
2022/01/13 04:47:57;;;;;;;;;;;;;;;18.40;47.14;103897.63;7281628;19;152793;-51
2022/01/13 04:50:23;;;;;;;;;;;;;;;18.43;47.23;103891.63;7277960;19;154365;-50
2022/01/13 04:52:50;;;;;;;;;;;;;;;18.46;48.23;103892.03;7287423;19;151880;-50
2022/01/13 04:55:24;;;;;;;;;;;;;;;18.50;47.95;103898.88;7278313;19;154303;-51
2022/01/13 04:57:51;;;;;;;;;;;;;;;18.55;47.99;103893.50;7277982;19;152231;-50
2022/01/13 05:00:18;;;;;;;;;;;;;;;18.59;48.01;103889.19;7280360;19;152285;-50
2022/01/13 05:02:45;;;;;;;;;;;;;;;18.65;48.34;103884.63;7280292;19;153538;-50
2022/01/13 05:05:12;;;;;;;;;;;;;;;18.71;48.62;103888.50;7278131;19;152162;-50
2022/01/13 05:07:39;;;;;;;;;;;;;;;18.78;48.31;103898.56;7275676;19;153429;-53
2022/01/13 05:10:06;;;;;;;;;;;;;;;18.84;48.83;103894.88;7275604;19;154044;-50
2022/01/13 05:12:40;;;;;;;;;;;;;;;18.90;48.55;103893.94;7281424;19;151901;-50
2022/01/13 05:15:09;;;;;;;;;;;;;;;18.98;48.11;103892.84;7287822;19;152826;-50
2022/01/13 05:20:17;;;;;;;;;;;;;;;19.12;47.90;103907.63;7280262;19;152378;-50
2022/01/13 05:22:44;;;;;;;;;;;;;;;19.19;48.12;103911.22;7279050;19;154156;-50
2022/01/13 05:25:11;;;;;;;;;;;;;;;19.26;47.75;103909.22;7280527;19;152471;-50
2022/01/13 05:27:38;;;;;;;;;;;;;;;19.32;47.69;103914.78;7275522;19;151953;-51
2022/01/13 05:30:05;;;;;;;;;;;;;;;19.39;47.42;103909.13;7278014;19;152715;-50
2022/01/13 05:32:32;;;;;;;;;;;;;;;19.45;47.82;103906.28;7279683;19;152361;-51
2022/01/13 05:34:58;;;;;;;;;;;;;;;19.52;47.78;103915.50;7278130;19;153700;-50
2022/01/13 05:37:25;;;;;;;;;;;;;;;19.58;47.33;103907.28;7284167;19;154239;-51
2022/01/13 05:39:52;;;;;;;;;;;;;;;19.65;47.13;103903.31;7278119;19;152789;-51
2022/01/13 05:42:19;;;;;;;;;;;;;;;19.70;46.66;103914.69;7278213;19;154007;-50
2022/01/13 05:44:46;;;;;;;;;;;;;;;19.76;46.52;103912.91;7283437;19;152144;-50
2022/01/13 05:47:13;;;;;;;;;;;;;;;19.81;46.87;103913.06;7276240;19;152717;-50
2022/01/13 05:49:41;;;;;;;;;;;;;;;19.87;46.37;103913.00;7278761;19;153333;-51
2022/01/13 05:52:08;;;;;;;;;;;;;;;19.93;46.36;103908.41;7278092;19;152258;-50
2022/01/13 05:54:35;;;;;;;;;;;;;;;19.98;46.26;103912.25;7279322;19;153334;-51
2022/01/13 05:57:02;;;;;;;;;;;;;;;20.05;45.73;103908.50;7278572;19;153450;-50
2022/01/13 05:59:29;;;;;;;;;;;;;;;20.10;45.63;103901.09;7284825;19;152098;-50
2022/01/13 06:01:56;;;;;;;;;;;;;;;20.15;45.89;103908.81;7276303;19;153448;-50
2022/01/13 06:04:23;;;;;;;;;;;;;;;20.20;45.50;103909.84;7276783;19;152143;-50
2022/01/13 06:06:49;;;;;;;;;;;;;;;20.26;45.86;103916.47;7275078;19;153914;-50
2022/01/13 06:09:19;;;;;;;;;;;;;;;20.31;45.43;103908.19;7278263;19;153966;-50
2022/01/13 06:11:56;;;;;;;;;;;;;;;20.37;45.51;103916.56;7279074;19;152495;-50
2022/01/13 06:14:23;;;;;;;;;;;;;;;20.42;45.34;103910.22;7278021;19;153099;-50
2022/01/13 06:16:50;;;;;;;;;;;;;;;20.46;45.12;103911.47;7280309;19;153526;-51
2022/01/13 06:19:16;;;;;;;;;;;;;;;20.51;45.55;103917.25;7285903;19;151934;-50
2022/01/13 06:21:43;;;;;;;;;;;;;;;20.55;45.17;103907.25;7282504;19;153347;-50
2022/01/13 06:24:10;;;;;;;;;;;;;;;20.60;45.35;103913.03;7283918;19;152132;-51
2022/01/13 06:26:36;;;;;;;;;;;;;;;20.65;45.53;103921.59;7285042;19;152595;-50
2022/01/13 06:29:04;;;;;;;;;;;;;;;20.68;44.95;103921.13;7283841;19;153445;-51
2022/01/13 06:31:30;;;;;;;;;;;;;;;20.72;44.81;103916.72;7285492;19;152413;-50
2022/01/13 06:33:57;;;;;;;;;;;;;;;20.76;45.01;103917.97;7284708;19;153444;-50
2022/01/13 06:36:24;;;;;;;;;;;;;;;20.81;44.84;103929.34;7283929;19;154139;-54
2022/01/13 06:38:51;;;;;;;;;;;;;;;20.84;44.85;103926.09;7282798;19;152050;-50
2022/01/13 06:41:18;;;;;;;;;;;;;;;20.88;44.36;103925.59;7289908;19;152625;-50
2022/01/13 06:43:45;;;;;;;;;;;;;;;20.91;44.51;103911.94;7281366;19;152188;-50
2022/01/13 06:46:14;;;;;;;;;;;;;;;20.96;44.20;103914.88;7282997;19;153369;-50
2022/01/13 06:48:41;;;;;;;;;;;;;;;21.00;44.20;103910.50;7284171;19;153552;-50
2022/01/13 06:51:08;;;;;;;;;;;;;;;21.03;43.90;103909.16;7287025;19;152315;-50
2022/01/13 06:53:34;;;;;;;;;;;;;;;21.07;44.39;103910.41;7286357;19;153465;-50
2022/01/13 06:56:01;;;;;;;;;;;;;;;21.11;43.90;103914.44;7283415;19;154206;-50
2022/01/13 06:58:28;;;;;;;;;;;;;;;21.13;43.99;103906.63;7284950;19;152543;-50
2022/01/13 07:00:55;;;;;;;;;;;;;;;21.17;43.99;103905.91;7281889;19;153025;-51
2022/01/13 07:03:22;;;;;;;;;;;;;;;21.19;43.80;103909.34;7290644;19;153322;-50
2022/01/13 07:05:49;;;;;;;;;;;;;;;21.23;43.77;103912.53;7283472;19;153334;-50
2022/01/13 07:08:15;;;;;;;;;;;;;;;21.26;43.79;103912.91;7277879;19;154262;-51
2022/01/13 07:10:42;;;;;;;;;;;;;;;21.30;44.08;103914.13;7284298;19;151876;-50
2022/01/13 07:13:09;;;;;;;;;;;;;;;21.33;44.00;103918.44;7282310;19;152912;-51
2022/01/13 07:15:36;;;;;;;;;;;;;;;21.37;43.81;103914.03;7283223;19;153969;-56
2022/01/13 07:18:02;;;;;;;;;;;;;;;21.42;44.59;103916.13;7280477;19;152178;-50
2022/01/13 07:20:29;;;;;;;;;;;;;;;21.46;43.92;103915.41;7284953;19;153958;-51
2022/01/13 07:22:56;;;;;;;;;;;;;;;21.46;42.97;103909.78;7283334;19;153812;-51
2022/01/13 07:25:23;;;;;;;;;;;;;;;21.45;42.81;103916.50;7289815;19;152837;-51
2022/01/13 07:27:50;;;;;;;;;;;;;;;21.46;42.22;103911.72;7280137;19;152012;-52
2022/01/13 07:30:17;;;;;;;;;;;;;;;21.49;41.84;103912.09;7283758;19;151647;-51
2022/01/13 07:32:43;;;;;;;;;;;;;;;21.48;41.61;103915.16;7279597;19;153262;-50
2022/01/13 07:35:10;;;;;;;;;;;;;;;21.51;41.48;103912.72;7281267;19;154537;-51
2022/01/13 07:37:39;;;;;;;;;;;;;;;21.19;38.91;103905.69;7281608;19;151995;-50
2022/01/13 07:40:08;;;;;;;;;;;;;;;21.33;38.91;103912.81;7281399;19;154680;-51
2022/01/13 07:42:36;;;;;;;;;;;;;;;21.40;39.97;103919.16;7284217;19;153862;-52
2022/01/13 07:45:03;;;;;;;;;;;;;;;21.15;38.32;103915.72;7281112;19;152046;-51
2022/01/13 07:47:30;;;;;;;;;;;;;;;21.15;38.33;103916.56;7286380;19;153263;-52
2022/01/13 07:49:57;;;;;;;;;;;;;;;21.12;38.76;103919.81;7282103;19;153175;-51
2022/01/13 07:52:25;;;;;;;;;;;;;;;21.13;38.73;103918.75;7280881;19;152956;-51
2022/01/13 07:54:53;;;;;;;;;;;;;;;21.12;38.86;103918.97;7282338;19;154109;-51
2022/01/13 07:57:21;;;;;;;;;;;;;;;21.13;39.30;103920.69;7283039;19;152100;-52
2022/01/13 07:59:47;;;;;;;;;;;;;;;21.15;39.19;103927.81;7285619;19;152659;-51
2022/01/13 08:02:15;;;;;;;;;;;;;;;21.13;39.29;103920.69;7283563;19;153314;-51
2022/01/13 08:04:42;;;;;;;;;;;;;;;21.15;39.27;103924.13;7284892;19;152178;-51
2022/01/13 08:07:09;;;;;;;;;;;;;;;21.15;39.60;103916.56;7284179;19;151963;-51
2022/01/13 08:09:35;;;;;;;;;;;;;;;21.17;38.96;103925.59;7292605;19;153389;-52
2022/01/13 08:12:02;;;;;;;;;;;;;;;21.28;39.03;103938.84;7281219;19;152519;-50
2022/01/13 08:14:29;;;;;;;;;;;;;;;21.35;39.76;103938.72;7282058;19;154206;-54
2022/01/13 08:16:59;;;;;;;;;;;;;;;21.33;39.55;103942.88;7286158;19;152050;-51
2022/01/13 08:22:13;;;;;;;;;;;;;;;21.34;39.07;103942.66;7284818;19;153208;-51
2022/01/13 08:24:39;;;;;;;;;;;;;;;21.36;39.38;103951.69;7283536;19;151611;-51
2022/01/13 08:27:07;;;;;;;;;;;;;;;21.35;39.31;103947.16;7281808;19;152602;-52
2022/01/13 08:29:34;;;;;;;;;;;;;;;21.35;38.89;103961.22;7287636;19;152609;-51
2022/01/13 08:32:01;;;;;;;;;;;;;;;21.35;38.87;103957.59;7281802;19;151693;-51
2022/01/13 08:34:27;;;;;;;;;;;;;;;21.30;39.10;103958.31;7283521;19;153749;-51
2022/01/13 08:36:54;;;;;;;;;;;;;;;21.28;39.22;103954.88;7283515;19;152822;-51
2022/01/13 08:39:21;;;;;;;;;;;;;;;21.24;39.10;103959.25;7282487;19;153552;-53
2022/01/13 08:41:49;;;;;;;;;;;;;;;21.23;39.03;103957.53;7283901;19;153215;-51
2022/01/13 08:44:15;;;;;;;;;;;;;;;21.21;38.76;103956.94;7277071;19;151917;-51
2022/01/13 08:46:42;;;;;;;;;;;;;;;21.19;38.71;103951.53;7281326;19;151666;-51
2022/01/13 08:49:10;;;;;;;;;;;;;;;21.18;38.95;103966.69;7263200;19;153498;-51
2022/01/13 08:51:37;;;;;;;;;;;;;;;21.18;38.92;103961.06;7283258;19;152596;-51
2022/01/13 08:54:04;;;;;;;;;;;;;;;21.20;39.04;103970.13;7282642;19;152231;-51
2022/01/13 08:56:30;;;;;;;;;;;;;;;21.21;38.93;103956.94;7285126;19;151749;-51
2022/01/13 08:58:57;;;;;;;;;;;;;;;21.21;38.96;103954.94;7282365;19;153064;-50
2022/01/13 09:01:24;;;;;;;;;;;;;;;21.21;38.93;103956.94;7282722;19;154296;-51
2022/01/13 09:03:51;;;;;;;;;;;;;;;21.24;38.99;103959.25;7283366;19;151885;-51
2022/01/13 09:06:18;;;;;;;;;;;;;;;21.24;38.88;103965.75;7279534;19;153079;-51
2022/01/13 09:08:46;;;;;;;;;;;;;;;21.27;39.18;103956.81;7277896;19;153606;-51
2022/01/13 09:11:13;;;;;;;;;;;;;;;21.29;38.91;103959.41;7282577;19;152008;-51
2022/01/13 09:13:39;;;;;;;;;;;;;;;21.27;39.02;103958.75;7290252;19;152131;-51
2022/01/13 09:16:17;;;;;;;;;;;;;;;21.27;38.75;103951.19;7283370;19;151513;-51
2022/01/13 09:21:25;;;;;;;;;;;;;;;21.30;38.83;103955.50;7281900;19;153760;-51
2022/01/13 09:23:51;;;;;;;;;;;;;;;21.33;38.75;103954.13;7283662;19;152187;-51
2022/01/13 09:26:18;;;;;;;;;;;;;;;21.35;38.62;103955.59;7281876;19;152425;-53
2022/01/13 09:28:45;;;;;;;;;;;;;;;21.31;38.63;103960.00;7280612;19;153409;-51
2022/01/13 09:31:12;;;;;;;;;;;;;;;21.31;38.33;103954.38;7283564;19;151569;-51
2022/01/13 09:33:39;;;;;;;;;;;;;;;21.33;38.73;103955.00;7282496;19;154410;-51
2022/01/13 09:36:07;;;;;;;;;;;;;;;21.29;38.46;103953.78;7289675;19;154545;-51
2022/01/13 09:38:34;;;;;;;;;;;;;;;21.29;38.36;103956.59;7279903;19;152587;-51
2022/01/13 09:41:01;;;;;;;;;;;;;;;21.29;38.61;103951.81;7281926;19;154222;-51
2022/01/13 09:43:28;;;;;;;;;;;;;;;21.26;38.58;103957.91;7280367;19;151945;-51
2022/01/13 09:45:56;;;;;;;;;;;;;;;21.25;38.39;103955.34;7280744;19;153506;-51
2022/01/13 09:48:23;;;;;;;;;;;;;;;21.25;38.38;103955.34;7280172;19;153266;-51
2022/01/13 09:50:50;;;;;;;;;;;;;;;21.21;38.35;103951.31;7278007;19;152367;-51
2022/01/13 09:53:17;;;;;;;;;;;;;;;21.18;38.63;103948.97;7282786;19;151743;-51
2022/01/13 09:55:44;;;;;;;;;;;;;;;21.17;38.58;103936.84;7282478;19;153257;-51
2022/01/13 09:58:14;;;;;;;;;;;;;;;21.14;38.31;103942.09;7275732;19;153719;-52
2022/01/13 10:00:45;;;;;;;;;;;;;;;21.14;38.26;103947.72;7287540;19;153752;-51
2022/01/13 10:03:17;;;;;;;;;;;;;;;21.10;38.26;103943.66;7288605;19;151994;-51
2022/01/13 10:05:52;;;;;;;;;;;;;;;21.09;38.29;103944.72;7285763;19;152368;-50
2022/01/13 10:08:22;;;;;;;;;;;;;;;21.04;38.31;103948.25;7285960;19;154307;-51
2022/01/13 10:10:52;;;;;;;;;;;;;;;21.05;38.68;103947.19;7288462;19;151893;-52
2022/01/13 10:13:29;;;;;;;;;;;;;;;21.00;38.49;103951.78;7288379;19;152316;-51
2022/01/13 10:18:45;;;;;;;;;;;;;;;20.95;38.75;103949.69;7287783;19;151798;-53
2022/01/13 10:21:16;;;;;;;;;;;;;;;20.92;38.43;103938.09;7294843;19;152588;-52
2022/01/13 10:24:03;;;;;;;;;;;;;;;20.94;38.63;103947.97;7288801;19;152142;-52
2022/01/13 10:26:34;;;;;;;;;;;;;;;20.90;38.83;103941.13;7288218;19;152639;-57
2022/01/13 10:29:01;;;;;;;;;;;;;;;20.86;38.93;103937.94;7276846;19;153985;-51
2022/01/13 10:31:43;;;;;;;;;;;;;;;20.85;38.93;103938.16;7276643;19;153371;-51
2022/01/13 10:34:23;;;;;;;;;;;;;;;20.83;38.69;103940.38;7286354;19;153446;-53
2022/01/13 10:37:11;;;;;;;;;;;;;;;20.79;39.10;103934.38;7287173;19;153869;-51
2022/01/13 10:39:50;;;;;;;;;;;;;;;20.75;38.76;103933.13;7287559;19;151995;-50
2022/01/13 10:45:17;;;;;;;;;;;;;;;20.70;39.05;103929.31;7288210;19;151607;-51
2022/01/13 10:47:51;;;;;;;;;;;;;;;20.66;39.18;103934.56;7287805;19;153581;-51
2022/01/13 10:50:18;;;;;;;;;;;;;;;20.62;39.30;103938.94;7281005;19;152635;-51
2022/01/13 10:52:45;;;;;;;;;;;;;;;20.59;39.20;103936.59;7285616;19;152213;-51
2022/01/13 10:55:13;;;;;;;;;;;;;;;20.57;38.87;103938.78;7287736;19;152866;-53
2022/01/13 10:58:00;;;;;;;;;;;;;;;20.52;39.41;103943.38;7284719;19;155915;-51
2022/01/13 11:00:28;;;;;;;;;;;;;;;20.51;39.51;103938.84;7285858;19;152217;-52
2022/01/13 11:03:05;;;;;;;;;;;;;;;20.48;39.37;103933.72;7272627;19;155392;-50
2022/01/13 11:05:34;;;;;;;;;;;;;;;20.43;39.16;103928.81;7288588;19;154917;-51
2022/01/13 11:08:05;;;;;;;;;;;;;;;20.41;39.33;103930.97;7284031;19;151715;-51
2022/01/13 11:10:33;;;;;;;;;;;;;;;20.38;39.42;103928.66;7284780;19;153986;-51
2022/01/13 11:13:02;;;;;;;;;;;;;;;20.34;39.72;103927.41;7285692;19;151883;-51
2022/01/13 11:15:29;;;;;;;;;;;;;;;20.29;39.82;103921.59;7287168;19;153424;-51
2022/01/13 11:18:13;;;;;;;;;;;;;;;20.27;39.65;103918.16;7286085;19;153471;-51
2022/01/13 11:20:42;;;;;;;;;;;;;;;20.25;39.55;103915.59;7287135;19;152388;-52
2022/01/13 11:23:17;;;;;;;;;;;;;;;20.21;39.95;103924.72;7286294;19;153433;-51
2022/01/13 11:25:45;;;;;;;;;;;;;;;20.18;39.66;103917.63;7283919;19;154300;-51
2022/01/13 11:28:12;;;;;;;;;;;;;;;20.15;39.69;103909.66;7291361;19;152135;-51
2022/01/13 11:30:41;;;;;;;;;;;;;;;20.12;40.01;103912.97;7285516;19;153163;-51
2022/01/13 11:33:15;;;;;;;;;;;;;;;20.10;40.26;103919.88;7271965;19;153341;-51
2022/01/13 11:35:45;;;;;;;;;;;;;;;20.06;40.01;103907.41;7276659;19;153619;-51
2022/01/13 11:38:15;;;;;;;;;;;;;;;20.04;40.09;103906.75;7282849;19;152649;-52
2022/01/13 11:40:49;;;;;;;;;;;;;;;20.03;40.38;103908.75;7286647;19;152211;-51
2022/01/13 11:43:24;;;;;;;;;;;;;;;19.99;39.95;103902.72;7286112;19;153353;-51
2022/01/13 11:45:51;;;;;;;;;;;;;;;19.96;40.08;103894.78;7284618;19;154419;-51
2022/01/13 11:48:20;;;;;;;;;;;;;;;19.94;40.04;103896.94;7282166;19;152107;-51
2022/01/13 11:51:13;;;;;;;;;;;;;;;19.91;40.28;103891.81;7289661;19;152603;-51
2022/01/13 11:53:52;;;;;;;;;;;;;;;19.89;40.07;103885.59;7282036;19;152341;-51
2022/01/13 11:56:18;;;;;;;;;;;;;;;19.88;40.54;103883.00;7285848;19;151995;-51
2022/01/13 11:58:46;;;;;;;;;;;;;;;19.85;40.50;103887.09;7284302;19;153265;-51
2022/01/13 12:01:18;;;;;;;;;;;;;;;19.86;40.19;103882.34;7283286;19;152253;-51
2022/01/13 12:03:52;;;;;;;;;;;;;;;19.83;40.34;103882.84;7285195;19;152547;-51
2022/01/13 12:06:33;;;;;;;;;;;;;;;19.80;40.45;103878.56;7260661;19;153767;-51
2022/01/13 12:09:00;;;;;;;;;;;;;;;19.78;40.83;103877.91;7280992;19;152080;-51
2022/01/13 12:11:34;;;;;;;;;;;;;;;19.77;40.22;103884.59;7286060;19;152662;-52
2022/01/13 12:14:01;;;;;;;;;;;;;;;19.75;40.32;103880.34;7292191;19;153376;-51
2022/01/13 12:16:46;;;;;;;;;;;;;;;19.75;40.42;103871.91;7283598;19;152246;-51
2022/01/13 12:19:25;;;;;;;;;;;;;;;19.70;40.83;103872.63;7281907;19;154031;-52
2022/01/13 12:22:02;;;;;;;;;;;;;;;19.71;40.54;103865.91;7286193;19;151885;-51
2022/01/13 12:24:47;;;;;;;;;;;;;;;19.70;40.92;103874.56;7283985;19;153077;-51
2022/01/13 12:27:14;;;;;;;;;;;;;;;19.66;40.87;103874.16;7283691;19;152153;-51
2022/01/13 12:30:02;;;;;;;;;;;;;;;19.65;40.54;103865.97;7282888;19;151891;-52
2022/01/13 12:32:49;;;;;;;;;;;;;;;19.65;40.88;103871.59;7285602;19;153345;-51
2022/01/13 12:35:28;;;;;;;;;;;;;;;19.62;40.55;103864.50;7283482;19;152417;-51
2022/01/13 12:38:02;;;;;;;;;;;;;;;19.61;40.91;103867.53;7276186;19;153948;-51
2022/01/13 12:40:45;;;;;;;;;;;;;;;19.60;40.96;103863.00;7276967;19;154082;-51
2022/01/13 12:46:07;;;;;;;;;;;;;;;19.56;41.08;103854.19;7284964;19;154365;-52
2022/01/13 12:48:35;;;;;;;;;;;;;;;19.54;40.79;103846.00;7280633;19;154194;-51
2022/01/13 12:51:02;;;;;;;;;;;;;;;19.52;40.77;103848.19;7285701;19;152301;-51
2022/01/13 12:53:32;;;;;;;;;;;;;;;19.54;40.80;103845.16;7280006;19;153433;-51
2022/01/13 12:56:10;;;;;;;;;;;;;;;19.52;41.04;103838.94;7282413;19;153824;-51
2022/01/13 12:58:38;;;;;;;;;;;;;;;19.49;40.85;103842.16;7291054;19;151933;-51
2022/01/13 13:01:08;;;;;;;;;;;;;;;19.49;40.86;103842.16;7283295;19;154260;-51